createdAt,value
2023-01-27T00:01:15.133Z,30.10
2023-01-27T00:03:42.114Z,30.50
2023-01-27T00:06:12.214Z,30.90
2023-01-27T00:08:39.601Z,31.00
2023-01-27T00:11:25.274Z,30.80
2023-01-27T00:13:52.457Z,30.50
2023-01-27T00:16:19.617Z,30.70
2023-01-27T00:18:47.472Z,31.20
2023-01-27T00:21:33.078Z,31.50
2023-01-27T00:24:18.757Z,31.60
2023-01-27T00:26:45.848Z,31.60
2023-01-27T00:29:13.030Z,31.80
2023-01-27T00:31:58.862Z,31.80
2023-01-27T00:34:26.032Z,31.70
2023-01-27T00:36:53.148Z,31.80
2023-01-27T00:39:20.315Z,31.80
2023-01-27T00:41:47.456Z,31.80
2023-01-27T00:44:15.054Z,31.90
2023-01-27T00:46:42.702Z,32.00
2023-01-27T00:49:11.501Z,31.90
2023-01-27T00:51:38.662Z,32.00
2023-01-27T00:54:05.987Z,32.00
2023-01-27T00:56:33.228Z,32.00
2023-01-27T00:59:00.796Z,32.00
2023-01-27T01:01:29.071Z,31.80
2023-01-27T01:03:56.594Z,31.80
2023-01-27T01:06:24.201Z,31.80
2023-01-27T01:08:53.643Z,31.60
2023-01-27T01:11:22.102Z,31.60
2023-01-27T01:13:49.555Z,31.70
2023-01-27T01:16:19.852Z,31.80
2023-01-27T01:18:47.474Z,31.80
2023-01-27T01:21:15.225Z,31.80
2023-01-27T01:23:44.294Z,31.80
2023-01-27T01:26:13.273Z,31.80
2023-01-27T01:28:40.388Z,31.80
2023-01-27T01:31:10.568Z,31.40
2023-01-27T01:33:38.295Z,31.30
2023-01-27T01:36:11.081Z,30.90
2023-01-27T01:38:38.197Z,30.80
2023-01-27T01:41:07.066Z,30.70
2023-01-27T01:43:35.301Z,30.50
2023-01-27T01:46:03.299Z,30.30
2023-01-27T01:48:36.658Z,30.30
2023-01-27T01:51:20.380Z,30.10
2023-01-27T01:54:08.598Z,29.90
2023-01-27T01:56:52.958Z,30.10
2023-01-27T01:59:25.988Z,30.20
2023-01-27T02:01:56.895Z,30.10
2023-01-27T02:04:28.145Z,30.20
2023-01-27T02:07:18.274Z,29.90
2023-01-27T02:09:45.498Z,30.00
2023-01-27T02:12:12.921Z,29.90
2023-01-27T02:14:41.537Z,30.00
2023-01-27T02:17:12.903Z,30.30
2023-01-27T02:20:17.346Z,30.20
2023-01-27T02:23:06.281Z,30.20
2023-01-27T02:25:36.384Z,30.30
2023-01-27T02:28:06.325Z,30.10
2023-01-27T02:30:33.997Z,29.80
2023-01-27T02:33:01.324Z,29.90
2023-01-27T02:35:32.867Z,29.50
2023-01-27T02:38:00.431Z,29.80
2023-01-27T02:40:28.461Z,30.10
2023-01-27T02:42:57.682Z,30.00
2023-01-27T02:45:25.549Z,29.70
2023-01-27T02:47:52.716Z,29.80
2023-01-27T02:50:19.864Z,30.00
2023-01-27T02:52:47.078Z,30.00
2023-01-27T02:55:14.634Z,29.70
2023-01-27T02:57:41.935Z,30.10
2023-01-27T03:00:13.250Z,29.80
2023-01-27T03:02:40.379Z,29.60
2023-01-27T03:05:08.284Z,29.40
2023-01-27T03:07:35.352Z,29.70
2023-01-27T03:10:02.415Z,29.70
2023-01-27T03:12:29.576Z,29.90
2023-01-27T03:15:15.547Z,29.40
2023-01-27T03:18:01.280Z,29.70
2023-01-27T03:20:28.850Z,29.80
2023-01-27T03:22:56.028Z,29.80
2023-01-27T03:25:23.225Z,29.30
2023-01-27T03:27:51.021Z,28.90
2023-01-27T03:30:18.191Z,29.30
2023-01-27T03:32:54.499Z,29.00
2023-01-27T03:35:23.397Z,29.20
2023-01-27T03:38:08.947Z,29.50
2023-01-27T03:40:54.315Z,29.20
2023-01-27T03:43:40.020Z,28.40
2023-01-27T03:46:22.532Z,28.90
2023-01-27T03:48:55.032Z,29.40
2023-01-27T03:51:24.810Z,29.30
2023-01-27T03:53:52.579Z,29.70
2023-01-27T03:56:22.035Z,30.20
2023-01-27T03:58:50.610Z,30.00
2023-01-27T04:01:21.018Z,30.00
2023-01-27T04:04:07.889Z,30.10
2023-01-27T04:07:00.952Z,30.40
2023-01-27T04:09:34.216Z,29.40
2023-01-27T04:12:05.564Z,29.40
2023-01-27T04:14:42.894Z,28.80
2023-01-27T04:17:17.970Z,29.20
2023-01-27T04:19:47.019Z,28.80
2023-01-27T04:22:15.908Z,28.90
2023-01-27T04:24:43.365Z,29.80
2023-01-27T04:27:12.966Z,30.00
2023-01-27T04:29:41.702Z,30.10
2023-01-27T04:32:11.005Z,30.00
2023-01-27T04:34:39.302Z,29.30
2023-01-27T04:37:08.143Z,29.80
2023-01-27T04:39:36.110Z,29.80
2023-01-27T04:42:03.320Z,30.10
2023-01-27T04:44:30.879Z,30.20
2023-01-27T04:46:58.022Z,30.90
2023-01-27T04:49:26.973Z,30.50
2023-01-27T04:51:55.005Z,30.20
2023-01-27T04:54:22.618Z,29.80
2023-01-27T04:56:58.914Z,30.20
2023-01-27T04:59:26.191Z,29.80
2023-01-27T05:01:53.319Z,29.60
2023-01-27T05:04:20.471Z,29.70
2023-01-27T05:06:47.583Z,29.30
2023-01-27T05:09:14.642Z,29.70
2023-01-27T05:11:41.831Z,30.10
2023-01-27T05:14:08.879Z,30.60
2023-01-27T05:16:38.435Z,30.70
2023-01-27T05:19:05.705Z,30.50
2023-01-27T05:21:32.829Z,30.20
2023-01-27T05:23:59.892Z,30.40
2023-01-27T05:26:28.550Z,29.80
2023-01-27T05:28:59.618Z,29.70
2023-01-27T05:31:28.008Z,29.90
2023-01-27T05:33:56.566Z,29.90
2023-01-27T05:36:25.281Z,29.60
2023-01-27T05:38:54.107Z,29.70
2023-01-27T05:41:22.221Z,29.70
2023-01-27T05:43:53.584Z,28.90
2023-01-27T05:46:26.584Z,29.10
2023-01-27T05:48:59.691Z,29.40
2023-01-27T05:51:29.307Z,28.50
2023-01-27T05:53:56.463Z,29.00
2023-01-27T05:56:23.785Z,29.20
2023-01-27T05:58:50.917Z,29.10
2023-01-27T06:01:20.759Z,29.30
2023-01-27T06:03:48.751Z,28.60
2023-01-27T06:06:18.540Z,28.50
2023-01-27T06:08:46.237Z,28.40
2023-01-27T06:11:14.288Z,28.60
2023-01-27T06:13:41.808Z,29.20
2023-01-27T06:16:11.136Z,28.90
2023-01-27T06:18:39.436Z,29.10
2023-01-27T06:21:09.677Z,29.00
2023-01-27T06:23:38.105Z,29.00
2023-01-27T06:26:19.209Z,29.10
2023-01-27T06:28:46.911Z,29.50
2023-01-27T06:31:19.857Z,28.90
2023-01-27T06:33:47.236Z,27.50
2023-01-27T06:36:21.502Z,26.30
2023-01-27T06:38:49.355Z,26.50
2023-01-27T06:41:16.681Z,27.50
2023-01-27T06:43:43.861Z,28.00
2023-01-27T06:46:11.156Z,27.80
2023-01-27T06:48:38.407Z,28.10
2023-01-27T06:51:05.962Z,28.30
2023-01-27T06:53:33.161Z,29.00
2023-01-27T06:56:01.666Z,29.50
2023-01-27T06:58:29.580Z,29.30
2023-01-27T07:00:57.246Z,28.70
2023-01-27T07:03:24.843Z,28.50
2023-01-27T07:05:52.989Z,28.40
2023-01-27T07:08:20.148Z,27.90
2023-01-27T07:10:47.186Z,28.70
2023-01-27T07:13:15.429Z,28.70
2023-01-27T07:15:42.985Z,28.40
2023-01-27T07:18:14.351Z,28.70
2023-01-27T07:20:42.545Z,29.00
2023-01-27T07:23:10.161Z,29.00
2023-01-27T07:25:37.599Z,29.40
2023-01-27T07:28:05.174Z,29.80
2023-01-27T07:30:34.183Z,30.20
2023-01-27T07:33:12.631Z,30.40
2023-01-27T07:35:43.039Z,29.50
2023-01-27T07:38:10.369Z,29.70
2023-01-27T07:40:37.640Z,29.80
2023-01-27T07:43:04.872Z,29.50
2023-01-27T07:45:33.506Z,28.30
2023-01-27T07:48:08.052Z,28.30
2023-01-27T07:50:36.359Z,29.40
2023-01-27T07:53:05.337Z,30.30
2023-01-27T07:55:33.613Z,30.30
2023-01-27T07:58:00.818Z,29.90
2023-01-27T08:00:29.110Z,29.90
2023-01-27T08:02:57.687Z,30.00
2023-01-27T08:05:25.524Z,29.60
2023-01-27T08:07:53.811Z,30.40
2023-01-27T08:10:23.551Z,31.20
2023-01-27T08:12:52.192Z,31.40
2023-01-27T08:15:19.473Z,31.50
2023-01-27T08:17:54.736Z,31.40
2023-01-27T08:20:22.595Z,32.40
2023-01-27T08:22:49.673Z,32.00
2023-01-27T08:25:16.791Z,32.80
2023-01-27T08:27:43.897Z,33.20
2023-01-27T08:30:11.900Z,33.60
2023-01-27T08:32:39.255Z,33.70
2023-01-27T08:35:06.545Z,34.80
2023-01-27T08:37:33.982Z,35.00
2023-01-27T08:40:01.152Z,35.00
2023-01-27T08:42:28.333Z,35.50
2023-01-27T08:44:55.554Z,34.90
2023-01-27T08:47:22.716Z,35.90
2023-01-27T08:49:49.796Z,36.50
2023-01-27T08:52:16.822Z,37.30
2023-01-27T08:54:44.027Z,36.80
2023-01-27T08:57:11.560Z,37.40
2023-01-27T08:59:38.586Z,37.80
2023-01-27T09:02:05.752Z,37.40
2023-01-27T09:04:32.951Z,37.70
2023-01-27T09:07:00.119Z,38.40
2023-01-27T09:09:27.468Z,38.60
2023-01-27T09:11:54.672Z,38.80
2023-01-27T09:14:21.749Z,37.50
2023-01-27T09:16:48.789Z,37.50
2023-01-27T09:19:16.757Z,37.10
2023-01-27T09:21:43.866Z,36.10
2023-01-27T09:24:11.461Z,36.00
2023-01-27T09:26:39.556Z,36.10
2023-01-27T09:29:06.719Z,36.30
2023-01-27T09:31:33.996Z,35.50
2023-01-27T09:34:01.399Z,35.30
2023-01-27T09:36:28.989Z,35.50
2023-01-27T09:39:06.136Z,36.10
2023-01-27T09:41:54.739Z,36.60
2023-01-27T09:44:54.521Z,36.10
2023-01-27T09:47:29.591Z,35.80
2023-01-27T09:50:15.805Z,36.10
2023-01-27T09:53:09.353Z,36.50
2023-01-27T09:55:42.356Z,36.00
2023-01-27T09:58:12.436Z,36.40
2023-01-27T10:01:18.658Z,36.60
2023-01-27T10:04:03.505Z,35.30
2023-01-27T10:06:52.125Z,36.10
2023-01-27T10:09:25.008Z,35.80
2023-01-27T10:12:00.792Z,35.60
2023-01-27T10:14:54.059Z,35.50
2023-01-27T10:17:45.734Z,36.50
2023-01-27T10:20:36.059Z,35.90
2023-01-27T10:23:18.405Z,36.50
2023-01-27T10:26:18.145Z,36.90
2023-01-27T10:28:56.054Z,37.10
2023-01-27T10:31:32.448Z,37.40
2023-01-27T10:34:16.004Z,38.30
2023-01-27T10:36:54.975Z,38.10
2023-01-27T10:39:36.116Z,37.60
2023-01-27T10:42:14.860Z,37.40
2023-01-27T10:44:57.122Z,38.00
2023-01-27T10:47:42.840Z,38.10
2023-01-27T10:50:35.815Z,37.40
2023-01-27T10:53:13.338Z,36.60
2023-01-27T10:56:10.276Z,36.50
2023-01-27T10:58:40.240Z,36.40
2023-01-27T11:01:20.955Z,36.30
2023-01-27T11:04:12.974Z,35.90
2023-01-27T11:06:42.744Z,33.90
2023-01-27T11:09:27.823Z,34.40
2023-01-27T11:12:00.727Z,34.70
2023-01-27T11:14:32.538Z,35.30
2023-01-27T11:17:35.935Z,34.60
2023-01-27T11:20:28.580Z,33.90
2023-01-27T11:23:09.703Z,35.20
2023-01-27T11:25:36.633Z,35.10
2023-01-27T11:28:31.504Z,35.10
2023-01-27T11:30:58.501Z,35.00
2023-01-27T11:33:40.887Z,35.00
2023-01-27T11:36:09.746Z,34.20
2023-01-27T11:38:36.965Z,34.20
2023-01-27T11:41:04.279Z,34.80
2023-01-27T11:43:32.048Z,35.10
2023-01-27T11:46:04.680Z,34.80
2023-01-27T11:48:41.388Z,34.70
2023-01-27T11:51:26.813Z,35.70
2023-01-27T11:54:29.413Z,36.40
2023-01-27T11:56:56.665Z,36.70
2023-01-27T11:59:31.012Z,36.70
2023-01-27T12:02:18.554Z,36.80
2023-01-27T12:04:59.930Z,37.90
2023-01-27T12:07:51.737Z,37.90
2023-01-27T12:10:33.070Z,38.10
2023-01-27T12:13:17.078Z,38.60
2023-01-27T12:16:02.813Z,39.30
2023-01-27T12:18:35.415Z,38.40
2023-01-27T12:21:06.768Z,39.10
2023-01-27T12:23:53.991Z,39.50
2023-01-27T12:26:39.053Z,39.50
2023-01-27T12:29:14.893Z,39.20
2023-01-27T12:31:48.116Z,38.40
2023-01-27T12:34:37.294Z,37.90
2023-01-27T12:37:07.425Z,37.80
2023-01-27T12:39:42.362Z,36.50
2023-01-27T12:42:39.937Z,36.70
2023-01-27T12:45:30.152Z,37.30
2023-01-27T12:48:02.314Z,37.30
2023-01-27T12:50:32.649Z,37.90
2023-01-27T12:53:14.040Z,38.20
2023-01-27T12:55:57.886Z,37.80
2023-01-27T12:58:46.429Z,37.80
2023-01-27T13:01:36.538Z,37.90
2023-01-27T13:04:24.523Z,37.70
2023-01-27T13:07:13.741Z,37.30
2023-01-27T13:10:17.050Z,37.00
2023-01-27T13:12:54.356Z,37.30
2023-01-27T13:15:24.662Z,37.20
2023-01-27T13:17:54.120Z,36.90
2023-01-27T13:20:24.250Z,36.80
2023-01-27T13:23:08.316Z,37.80
2023-01-27T13:25:55.393Z,37.30
2023-01-27T13:28:33.443Z,36.10
2023-01-27T13:31:09.102Z,37.00
2023-01-27T13:33:48.139Z,37.10
2023-01-27T13:36:29.169Z,36.60
2023-01-27T13:39:00.699Z,36.70
2023-01-27T13:42:02.013Z,36.50
2023-01-27T13:44:43.987Z,35.90
2023-01-27T13:47:24.816Z,36.00
2023-01-27T13:50:09.170Z,35.10
2023-01-27T13:52:38.302Z,34.80
2023-01-27T13:55:06.432Z,34.80
2023-01-27T13:57:33.476Z,35.00
2023-01-27T14:00:25.587Z,34.90
2023-01-27T14:03:25.804Z,35.00
2023-01-27T14:06:11.085Z,35.10
2023-01-27T14:08:45.411Z,35.30
2023-01-27T14:11:43.142Z,35.80
2023-01-27T14:14:28.539Z,36.10
2023-01-27T14:17:26.573Z,35.30
2023-01-27T14:19:53.665Z,35.50
2023-01-27T14:22:33.035Z,35.20
2023-01-27T14:25:20.209Z,35.20
2023-01-27T14:27:50.717Z,35.30
2023-01-27T14:30:27.290Z,34.90
2023-01-27T14:33:29.976Z,34.90
2023-01-27T14:36:25.484Z,34.70
2023-01-27T14:39:28.197Z,34.40
2023-01-27T14:42:03.873Z,34.40
2023-01-27T14:45:03.057Z,33.20
2023-01-27T14:48:00.969Z,31.90
2023-01-27T14:50:47.468Z,31.80
2023-01-27T14:53:32.626Z,32.20
2023-01-27T14:56:32.418Z,32.10
2023-01-27T14:59:27.095Z,31.30
2023-01-27T15:02:21.147Z,31.10
2023-01-27T15:05:16.151Z,30.70
2023-01-27T15:08:18.745Z,30.80
2023-01-27T15:11:13.267Z,30.60
2023-01-27T15:14:07.666Z,30.50
2023-01-27T15:17:12.392Z,30.50
2023-01-27T15:19:45.311Z,30.20
2023-01-27T15:22:43.099Z,31.30
2023-01-27T15:25:29.992Z,31.40
2023-01-27T15:27:58.587Z,31.70
2023-01-27T15:30:38.689Z,31.30
2023-01-27T15:33:44.001Z,30.90
2023-01-27T15:36:32.157Z,31.30
2023-01-27T15:39:11.426Z,30.40
2023-01-27T15:42:03.319Z,30.60
2023-01-27T15:44:40.972Z,30.20
2023-01-27T15:47:23.144Z,30.60
2023-01-27T15:50:07.549Z,30.10
2023-01-27T15:52:45.996Z,29.90
2023-01-27T15:55:24.130Z,30.40
2023-01-27T15:58:05.001Z,30.90
2023-01-27T16:00:38.041Z,31.10
2023-01-27T16:03:15.447Z,31.30
2023-01-27T16:05:52.227Z,30.80
2023-01-27T16:08:20.252Z,31.10
2023-01-27T16:10:49.198Z,30.30
2023-01-27T16:13:31.298Z,30.50
2023-01-27T16:16:19.590Z,29.60
2023-01-27T16:18:50.320Z,29.80
2023-01-27T16:21:47.872Z,30.10
2023-01-27T16:24:36.327Z,30.30
2023-01-27T16:27:16.931Z,31.00
2023-01-27T16:29:59.279Z,31.00
2023-01-27T16:32:38.975Z,31.30
2023-01-27T16:35:18.741Z,30.10
2023-01-27T16:38:14.872Z,29.70
2023-01-27T16:40:49.506Z,29.70
2023-01-27T16:43:20.611Z,28.80
2023-01-27T16:45:49.353Z,29.00
2023-01-27T16:48:30.309Z,29.20
2023-01-27T16:51:12.573Z,28.10
2023-01-27T16:53:48.885Z,29.20
2023-01-27T16:56:28.479Z,29.60
2023-01-27T16:59:21.617Z,29.20
2023-01-27T17:01:51.564Z,28.10
2023-01-27T17:04:27.103Z,28.80
2023-01-27T17:06:58.268Z,30.20
2023-01-27T17:09:28.067Z,30.70
2023-01-27T17:11:55.941Z,30.50
2023-01-27T17:14:31.807Z,30.60
2023-01-27T17:17:15.710Z,30.70
2023-01-27T17:19:48.444Z,31.00
2023-01-27T17:22:54.196Z,31.50
2023-01-27T17:25:31.917Z,31.80
2023-01-27T17:28:00.819Z,31.20
2023-01-27T17:30:35.135Z,30.70
2023-01-27T17:33:05.579Z,30.90
2023-01-27T17:35:41.848Z,31.40
2023-01-27T17:38:16.037Z,30.90
2023-01-27T17:40:45.932Z,30.70
2023-01-27T17:43:32.673Z,30.00
2023-01-27T17:46:06.131Z,29.90
2023-01-27T17:48:35.561Z,30.00
2023-01-27T17:51:02.628Z,30.10
2023-01-27T17:53:30.374Z,29.80
2023-01-27T17:55:57.833Z,29.00
2023-01-27T17:58:27.163Z,29.50
2023-01-27T18:00:56.232Z,29.40
2023-01-27T18:03:30.177Z,29.30
2023-01-27T18:05:57.674Z,28.90
2023-01-27T18:08:24.774Z,30.10
2023-01-27T18:10:52.774Z,30.90
2023-01-27T18:13:20.967Z,31.00
2023-01-27T18:16:02.755Z,30.90
2023-01-27T18:18:35.419Z,31.30
2023-01-27T18:21:12.605Z,31.50
2023-01-27T18:23:52.913Z,31.20
2023-01-27T18:26:27.965Z,31.10
2023-01-27T18:29:01.771Z,30.70
2023-01-27T18:31:36.369Z,31.50
2023-01-27T18:34:07.779Z,31.20
2023-01-27T18:36:36.957Z,30.70
2023-01-27T18:39:28.681Z,30.20
2023-01-27T18:41:56.490Z,29.50
2023-01-27T18:44:27.319Z,29.80
2023-01-27T18:47:02.296Z,29.30
2023-01-27T18:49:29.408Z,27.60
2023-01-27T18:51:56.612Z,28.70
2023-01-27T18:54:24.843Z,28.80
2023-01-27T18:56:51.909Z,29.20
2023-01-27T18:59:19.240Z,29.80
2023-01-27T19:01:46.427Z,30.40
2023-01-27T19:04:13.648Z,29.40
2023-01-27T19:06:40.713Z,29.50
2023-01-27T19:09:11.500Z,29.80
2023-01-27T19:11:38.693Z,30.20
2023-01-27T19:14:07.040Z,30.10
2023-01-27T19:16:34.535Z,30.80
2023-01-27T19:19:03.799Z,31.20
2023-01-27T19:21:30.863Z,31.40
2023-01-27T19:23:57.920Z,31.70
2023-01-27T19:26:25.134Z,31.60
2023-01-27T19:28:57.654Z,31.70
2023-01-27T19:31:25.063Z,31.50
2023-01-27T19:33:52.256Z,31.70
2023-01-27T19:36:50.786Z,31.90
2023-01-27T19:39:20.094Z,31.90
2023-01-27T19:41:47.408Z,31.90
2023-01-27T19:44:15.550Z,31.30
2023-01-27T19:46:43.468Z,30.50
2023-01-27T19:49:18.057Z,30.00
2023-01-27T19:51:45.383Z,29.80
2023-01-27T19:54:12.719Z,30.10
2023-01-27T19:56:39.888Z,29.80
2023-01-27T19:59:07.058Z,29.00
2023-01-27T20:01:34.192Z,30.20
2023-01-27T20:04:01.501Z,30.30
2023-01-27T20:06:31.280Z,30.20
2023-01-27T20:09:00.075Z,29.20
2023-01-27T20:11:36.391Z,27.70
2023-01-27T20:14:19.099Z,27.90
2023-01-27T20:16:47.224Z,29.20
2023-01-27T20:19:15.774Z,28.90
2023-01-27T20:21:47.111Z,30.30
2023-01-27T20:24:19.153Z,30.90
2023-01-27T20:26:47.503Z,31.00
2023-01-27T20:29:15.381Z,30.90
2023-01-27T20:31:42.749Z,30.90
2023-01-27T20:34:10.208Z,30.90
2023-01-27T20:36:37.244Z,29.80
2023-01-27T20:39:04.501Z,30.10
2023-01-27T20:41:31.600Z,30.90
2023-01-27T20:44:00.687Z,31.10
2023-01-27T20:46:30.006Z,31.50
2023-01-27T20:48:58.962Z,31.70
2023-01-27T20:51:26.358Z,30.90
2023-01-27T20:53:53.694Z,31.60
2023-01-27T20:56:23.408Z,31.20
2023-01-27T20:58:51.317Z,30.30
2023-01-27T21:01:23.584Z,30.70
2023-01-27T21:03:50.963Z,30.10
2023-01-27T21:06:20.165Z,30.80
2023-01-27T21:08:50.819Z,31.10
2023-01-27T21:11:20.586Z,31.00
2023-01-27T21:13:49.017Z,29.50
2023-01-27T21:16:16.263Z,29.60
2023-01-27T21:18:44.218Z,30.20
2023-01-27T21:21:23.243Z,30.90
2023-01-27T21:23:50.564Z,30.60
2023-01-27T21:26:17.765Z,31.10
2023-01-27T21:28:44.999Z,30.90
2023-01-27T21:31:18.461Z,30.20
2023-01-27T21:33:45.950Z,30.90
2023-01-27T21:36:13.344Z,30.20
2023-01-27T21:38:40.998Z,29.10
2023-01-27T21:41:13.951Z,27.10
2023-01-27T21:44:19.284Z,26.50
2023-01-27T21:46:46.800Z,26.80
2023-01-27T21:49:14.208Z,27.80
2023-01-27T21:51:41.973Z,29.20
2023-01-27T21:54:09.329Z,30.10
2023-01-27T21:56:36.495Z,30.00
2023-01-27T21:59:03.610Z,30.70
2023-01-27T22:01:31.711Z,31.00
2023-01-27T22:03:58.986Z,29.90
2023-01-27T22:06:26.237Z,30.10
2023-01-27T22:08:53.436Z,29.20
2023-01-27T22:11:21.055Z,29.20
2023-01-27T22:13:48.067Z,30.10
2023-01-27T22:16:16.152Z,31.20
2023-01-27T22:18:43.941Z,31.70
2023-01-27T22:21:11.119Z,31.50
2023-01-27T22:23:38.124Z,30.80
2023-01-27T22:26:08.242Z,30.10
2023-01-27T22:28:35.387Z,30.20
2023-01-27T22:31:02.578Z,30.30
2023-01-27T22:33:35.421Z,30.70
2023-01-27T22:36:04.311Z,31.20
2023-01-27T22:38:31.799Z,31.50
2023-01-27T22:40:59.365Z,31.80
2023-01-27T22:43:26.490Z,31.50
2023-01-27T22:45:53.663Z,31.60
2023-01-27T22:48:20.868Z,31.00
2023-01-27T22:50:47.943Z,31.00
2023-01-27T22:53:15.494Z,31.00
2023-01-27T22:55:42.509Z,31.40
2023-01-27T22:58:09.941Z,31.80
2023-01-27T23:00:37.134Z,32.00
2023-01-27T23:03:04.402Z,32.20
2023-01-27T23:05:31.473Z,32.10
2023-01-27T23:07:58.730Z,32.20
2023-01-27T23:10:25.883Z,32.30
2023-01-27T23:12:53.153Z,32.40
2023-01-27T23:15:20.431Z,32.50
2023-01-27T23:17:48.810Z,32.60
2023-01-27T23:20:16.035Z,32.70
2023-01-27T23:22:43.190Z,32.60
2023-01-27T23:25:11.742Z,32.60
2023-01-27T23:27:40.809Z,32.60
2023-01-27T23:30:10.366Z,32.60
2023-01-27T23:32:38.321Z,32.60
2023-01-27T23:35:06.617Z,32.70
2023-01-27T23:37:33.993Z,32.60
2023-01-27T23:40:00.981Z,32.50
2023-01-27T23:42:28.305Z,32.50
2023-01-27T23:44:55.350Z,32.50
2023-01-27T23:47:22.565Z,32.50
2023-01-27T23:49:49.945Z,32.30
2023-01-27T23:52:17.018Z,32.20
2023-01-27T23:54:44.224Z,32.20
2023-01-27T23:57:11.385Z,32.10
2023-01-27T23:59:38.425Z,32.30
